createdAt,value
2022-09-05T00:00:34.144Z,17.16
2022-09-05T00:01:34.093Z,17.16
2022-09-05T00:02:34.078Z,17.12
2022-09-05T00:03:34.123Z,17.14
2022-09-05T00:04:34.047Z,17.19
2022-09-05T00:05:33.898Z,17.12
2022-09-05T00:06:33.830Z,17.20
2022-09-05T00:07:58.155Z,17.14
2022-09-05T00:08:33.739Z,17.16
2022-09-05T00:09:33.672Z,17.27
2022-09-05T00:10:36.126Z,17.24
2022-09-05T00:11:40.589Z,17.26
2022-09-05T00:12:33.536Z,17.23
2022-09-05T00:13:33.469Z,17.24
2022-09-05T00:14:53.669Z,17.24
2022-09-05T00:15:33.408Z,17.27
2022-09-05T00:16:33.413Z,17.24
2022-09-05T00:17:37.036Z,17.38
2022-09-05T00:23:45.519Z,17.39
2022-09-05T00:24:24.985Z,17.42
2022-09-05T00:24:25.995Z,17.42
2022-09-05T00:24:28.310Z,17.52
2022-09-05T00:24:30.062Z,17.46
2022-09-05T00:24:32.755Z,17.49
2022-09-05T00:24:50.122Z,17.44
2022-09-05T00:25:33.721Z,17.48
2022-09-05T00:26:32.811Z,17.54
2022-09-05T00:27:32.812Z,17.51
2022-09-05T00:28:32.762Z,17.44
2022-09-05T00:30:57.376Z,17.51
2022-09-05T00:31:50.793Z,17.34
2022-09-05T00:31:55.385Z,17.36
2022-09-05T00:32:32.626Z,17.36
2022-09-05T00:33:32.502Z,17.39
2022-09-05T00:34:41.114Z,17.36
2022-09-05T00:35:32.394Z,17.38
2022-09-05T00:36:32.327Z,17.27
2022-09-05T00:37:32.288Z,17.33
2022-09-05T00:38:36.853Z,17.41
2022-09-05T00:39:32.214Z,17.27
2022-09-05T00:40:32.188Z,17.31
2022-09-05T00:41:34.513Z,17.39
2022-09-05T00:42:32.043Z,17.29
2022-09-05T00:43:31.967Z,17.36
2022-09-05T00:44:31.917Z,17.29
2022-09-05T00:45:31.896Z,17.36
2022-09-05T00:46:32.073Z,17.36
2022-09-05T00:47:31.794Z,17.34
2022-09-05T00:48:31.734Z,17.42
2022-09-05T00:49:31.679Z,17.33
2022-09-05T00:50:31.656Z,17.38
2022-09-05T00:51:34.942Z,17.46
2022-09-05T00:52:31.526Z,17.44
2022-09-05T00:53:31.460Z,17.39
2022-09-05T00:54:40.450Z,17.39
2022-09-05T00:55:31.384Z,17.36
2022-09-05T00:56:31.354Z,17.42
2022-09-05T00:57:31.262Z,17.33
2022-09-05T00:58:34.123Z,17.30
2022-09-05T00:59:31.166Z,17.27
2022-09-05T01:00:31.128Z,17.27
2022-09-05T01:01:31.175Z,17.29
2022-09-05T01:02:31.187Z,17.24
2022-09-05T01:03:30.969Z,17.27
2022-09-05T01:04:30.952Z,17.27
2022-09-05T01:05:30.891Z,17.22
2022-09-05T01:06:30.845Z,17.24
2022-09-05T01:07:30.762Z,17.23
2022-09-05T01:08:30.706Z,17.23
2022-09-05T01:09:30.664Z,17.20
2022-09-05T01:10:30.626Z,17.20
2022-09-05T01:11:30.595Z,17.15
2022-09-05T01:12:30.525Z,17.20
2022-09-05T01:13:30.513Z,17.14
2022-09-05T01:14:30.436Z,17.16
2022-09-05T01:15:32.399Z,17.16
2022-09-05T01:16:30.374Z,17.20
2022-09-05T01:17:30.277Z,17.12
2022-09-05T01:18:30.226Z,17.19
2022-09-05T01:19:30.202Z,17.12
2022-09-05T01:20:32.044Z,17.16
2022-09-05T01:21:30.094Z,17.11
2022-09-05T01:22:30.016Z,17.12
2022-09-05T01:23:29.976Z,17.20
2022-09-05T01:24:29.916Z,17.12
2022-09-05T01:25:29.881Z,17.05
2022-09-05T01:26:29.836Z,17.06
2022-09-05T01:27:38.239Z,17.19
2022-09-05T01:29:15.111Z,17.19
2022-09-05T01:29:29.689Z,17.11
2022-09-05T01:30:32.126Z,17.09
2022-09-05T01:31:29.661Z,17.14
2022-09-05T01:32:29.495Z,17.08
2022-09-05T01:33:29.485Z,17.08
2022-09-05T01:34:31.538Z,17.06
2022-09-05T01:35:29.395Z,17.14
2022-09-05T01:36:29.420Z,17.09
2022-09-05T01:37:33.491Z,17.09
2022-09-05T01:38:29.203Z,17.01
2022-09-05T01:40:11.539Z,16.93
2022-09-05T01:40:29.180Z,17.01
2022-09-05T01:41:29.063Z,17.04
2022-09-05T01:42:29.047Z,16.99
2022-09-05T01:43:28.946Z,16.90
2022-09-05T01:44:28.898Z,16.86
2022-09-05T01:45:30.784Z,16.99
2022-09-05T01:46:28.842Z,16.97
2022-09-05T01:47:31.018Z,16.87
2022-09-05T01:48:28.712Z,16.93
2022-09-05T01:49:28.641Z,16.94
2022-09-05T01:50:28.619Z,16.86
2022-09-05T01:51:31.714Z,16.87
2022-09-05T01:52:28.535Z,16.89
2022-09-05T01:53:28.471Z,16.86
2022-09-05T01:54:30.201Z,16.89
2022-09-05T01:55:28.371Z,16.89
2022-09-05T01:56:28.316Z,16.89
2022-09-05T01:57:28.274Z,16.83
2022-09-05T01:58:28.226Z,16.79
2022-09-05T01:59:28.157Z,16.87
2022-09-05T02:00:28.107Z,16.75
2022-09-05T02:01:32.655Z,16.81
2022-09-05T02:02:28.044Z,16.81
2022-09-05T02:03:28.000Z,16.83
2022-09-05T02:04:27.926Z,16.86
2022-09-05T02:05:48.217Z,16.87
2022-09-05T02:06:27.794Z,16.83
2022-09-05T02:07:31.192Z,16.86
2022-09-05T02:08:27.685Z,16.84
2022-09-05T02:09:27.679Z,16.79
2022-09-05T02:10:27.630Z,16.81
2022-09-05T02:11:35.961Z,16.84
2022-09-05T02:12:27.486Z,16.83
2022-09-05T02:13:27.452Z,16.89
2022-09-05T02:14:33.856Z,16.76
2022-09-05T02:15:27.399Z,16.75
2022-09-05T02:16:27.296Z,16.75
2022-09-05T02:17:49.574Z,16.78
2022-09-05T02:18:27.196Z,16.68
2022-09-05T02:19:27.201Z,16.74
2022-09-05T02:20:27.110Z,16.60
2022-09-05T02:21:27.051Z,16.64
2022-09-05T02:22:26.999Z,16.69
2022-09-05T02:23:41.606Z,16.69
2022-09-05T02:24:26.900Z,16.71
2022-09-05T02:26:01.184Z,16.69
2022-09-05T02:26:26.794Z,16.72
2022-09-05T02:27:44.450Z,16.68
2022-09-05T02:28:26.676Z,16.72
2022-09-05T02:29:29.175Z,16.64
2022-09-05T02:30:26.604Z,16.65
2022-09-05T02:31:26.604Z,16.66
2022-09-05T02:32:26.471Z,16.57
2022-09-05T02:33:26.503Z,16.65
2022-09-05T02:34:26.424Z,16.57
2022-09-05T02:35:26.347Z,16.56
2022-09-05T02:36:26.279Z,16.58
2022-09-05T02:38:22.291Z,16.54
2022-09-05T02:41:01.190Z,16.50
2022-09-05T02:45:03.806Z,16.54
2022-09-05T02:45:08.602Z,16.50
2022-09-05T02:45:12.355Z,16.56
2022-09-05T02:45:15.040Z,16.49
2022-09-05T02:45:18.589Z,16.57
2022-09-05T02:45:18.877Z,16.51
2022-09-05T02:45:27.590Z,16.57
2022-09-05T02:46:25.864Z,16.57
2022-09-05T02:47:25.776Z,16.46
2022-09-05T02:48:25.670Z,16.46
2022-09-05T02:50:29.584Z,16.51
2022-09-05T02:55:50.690Z,16.50
2022-09-05T02:57:24.008Z,16.57
2022-09-05T02:57:25.226Z,16.57
2022-09-05T02:57:35.090Z,16.72
2022-09-05T02:57:36.698Z,16.54
2022-09-05T02:57:40.242Z,16.65
2022-09-05T02:57:40.615Z,16.65
2022-09-05T02:58:05.702Z,16.68
2022-09-05T02:58:25.243Z,16.79
2022-09-05T02:59:36.119Z,16.84
2022-09-05T03:00:25.092Z,16.78
2022-09-05T03:01:25.085Z,16.76
2022-09-05T03:02:26.696Z,16.75
2022-09-05T03:03:24.921Z,16.79
2022-09-05T03:04:24.908Z,16.78
2022-09-05T03:05:24.846Z,16.72
2022-09-05T03:06:30.002Z,16.76
2022-09-05T03:07:24.711Z,16.69
2022-09-05T03:08:24.757Z,16.81
2022-09-05T03:09:24.620Z,16.78
2022-09-05T03:10:32.292Z,16.72
2022-09-05T03:11:24.543Z,16.75
2022-09-05T03:12:29.598Z,16.78
2022-09-05T03:13:24.417Z,16.81
2022-09-05T03:14:24.378Z,16.76
2022-09-05T03:15:24.354Z,16.76
2022-09-05T03:16:24.311Z,16.76
2022-09-05T03:17:24.220Z,16.84
2022-09-05T03:18:24.164Z,16.81
2022-09-05T03:19:24.143Z,16.90
2022-09-05T03:20:24.064Z,16.94
2022-09-05T03:21:24.035Z,16.91
2022-09-05T03:22:23.998Z,16.90
2022-09-05T03:23:23.937Z,17.08
2022-09-05T03:24:23.875Z,17.11
2022-09-05T03:25:23.823Z,17.15
2022-09-05T03:26:23.766Z,17.05
2022-09-05T03:27:23.783Z,17.08
2022-09-05T03:28:23.657Z,17.05
2022-09-05T03:29:23.612Z,17.14
2022-09-05T03:30:23.569Z,17.04
2022-09-05T03:31:23.564Z,17.08
2022-09-05T03:32:23.484Z,17.02
2022-09-05T03:33:23.411Z,17.04
2022-09-05T03:34:23.357Z,16.96
2022-09-05T03:35:23.319Z,16.97
2022-09-05T03:36:23.264Z,17.04
2022-09-05T03:37:23.212Z,16.86
2022-09-05T03:38:23.232Z,16.90
2022-09-05T03:39:23.155Z,16.81
2022-09-05T03:40:23.055Z,16.86
2022-09-05T03:41:25.227Z,16.90
2022-09-05T03:42:22.973Z,16.84
2022-09-05T03:43:22.907Z,16.81
2022-09-05T03:44:22.879Z,16.86
2022-09-05T03:45:29.876Z,16.81
2022-09-05T03:46:22.852Z,16.74
2022-09-05T03:47:22.710Z,16.81
2022-09-05T03:48:27.903Z,16.86
2022-09-05T03:50:37.197Z,16.72
2022-09-05T03:53:58.508Z,16.71
2022-09-05T03:57:05.075Z,16.68
2022-09-05T03:57:10.711Z,16.65
2022-09-05T03:57:14.836Z,16.60
2022-09-05T03:57:18.468Z,16.66
2022-09-05T03:57:22.568Z,16.60
2022-09-05T03:57:22.993Z,16.66
2022-09-05T03:57:38.561Z,16.57
2022-09-05T03:58:28.118Z,16.56
2022-09-05T03:59:22.094Z,16.54
2022-09-05T04:00:22.056Z,16.60
2022-09-05T04:03:09.186Z,16.53
2022-09-05T04:04:35.169Z,16.60
2022-09-05T04:08:09.119Z,16.56
2022-09-05T04:08:10.371Z,16.51
2022-09-05T04:08:18.542Z,16.58
2022-09-05T04:08:19.249Z,16.57
2022-09-05T04:08:26.895Z,16.56
2022-09-05T04:08:34.219Z,16.56
2022-09-05T04:09:37.266Z,16.57
2022-09-05T04:10:21.678Z,16.53
2022-09-05T04:11:21.519Z,16.51
2022-09-05T04:12:21.474Z,16.58
2022-09-05T04:13:21.387Z,16.49
2022-09-05T04:14:21.326Z,16.51
2022-09-05T04:15:21.299Z,16.50
2022-09-05T04:16:21.260Z,16.42
2022-09-05T04:17:21.171Z,16.57
2022-09-05T04:18:32.833Z,16.53
2022-09-05T04:19:21.087Z,16.54
2022-09-05T04:20:21.031Z,16.41
2022-09-05T04:21:20.992Z,16.46
2022-09-05T04:22:20.934Z,16.49
2022-09-05T04:23:20.914Z,16.47
2022-09-05T04:24:20.835Z,16.49
2022-09-05T04:25:20.789Z,16.43
2022-09-05T04:26:20.735Z,16.43
2022-09-05T04:27:20.845Z,16.46
2022-09-05T04:28:20.681Z,16.39
2022-09-05T04:29:20.588Z,16.46
2022-09-05T04:30:38.581Z,16.42
2022-09-05T04:31:20.545Z,16.54
2022-09-05T04:32:20.483Z,16.47
2022-09-05T04:33:22.222Z,16.43
2022-09-05T04:34:20.327Z,16.42
2022-09-05T04:35:20.283Z,16.43
2022-09-05T04:36:20.227Z,16.42
2022-09-05T04:37:20.176Z,16.41
2022-09-05T04:38:20.210Z,16.43
2022-09-05T04:39:20.090Z,16.46
2022-09-05T04:40:20.035Z,16.46
2022-09-05T04:41:20.028Z,16.50
2022-09-05T04:42:19.930Z,16.43
2022-09-05T04:43:19.901Z,16.39
2022-09-05T04:44:19.838Z,16.43
2022-09-05T04:45:24.259Z,16.50
2022-09-05T04:46:20.707Z,16.51
2022-09-05T04:47:19.674Z,16.53
2022-09-05T04:48:21.502Z,16.56
2022-09-05T04:49:20.431Z,16.61
2022-09-05T04:50:20.275Z,16.65
2022-09-05T04:51:19.485Z,16.65
2022-09-05T04:52:25.323Z,16.78
2022-09-05T04:53:19.499Z,16.87
2022-09-05T04:54:19.325Z,16.94
2022-09-05T04:55:19.288Z,16.94
2022-09-05T04:56:19.234Z,16.93
2022-09-05T04:57:19.177Z,17.02
2022-09-05T04:58:19.204Z,17.04
2022-09-05T05:01:50.823Z,17.08
2022-09-05T05:03:29.914Z,17.15
2022-09-05T05:06:01.810Z,17.15
2022-09-05T05:06:12.754Z,17.26
2022-09-05T05:06:13.728Z,17.11
2022-09-05T05:06:15.300Z,17.12
2022-09-05T05:06:16.908Z,17.22
2022-09-05T05:06:38.285Z,17.27
2022-09-05T05:07:18.815Z,17.24
2022-09-05T05:08:28.991Z,17.33
2022-09-05T05:09:18.587Z,17.41
2022-09-05T05:14:17.542Z,17.38
2022-09-05T05:14:44.459Z,17.36
2022-09-05T05:17:54.187Z,17.38
2022-09-05T05:17:58.681Z,17.38
2022-09-05T05:17:58.814Z,17.38
2022-09-05T05:18:14.680Z,17.34
2022-09-05T05:18:15.327Z,17.39
2022-09-05T05:18:15.330Z,17.34
2022-09-05T05:18:39.701Z,17.46
2022-09-05T05:19:21.669Z,17.42
2022-09-05T05:20:39.830Z,17.33
2022-09-05T05:21:17.973Z,17.38
2022-09-05T05:22:17.940Z,17.29
2022-09-05T05:23:17.893Z,17.29
2022-09-05T05:24:17.856Z,17.24
2022-09-05T05:25:17.770Z,17.12
2022-09-05T05:26:17.713Z,17.11
2022-09-05T05:27:17.685Z,17.06
2022-09-05T05:28:24.279Z,16.97
2022-09-05T05:29:19.528Z,16.84
2022-09-05T05:30:17.627Z,16.79
2022-09-05T05:31:17.526Z,16.84
2022-09-05T05:32:17.409Z,16.72
2022-09-05T05:33:17.360Z,16.76
2022-09-05T05:34:24.017Z,16.78
2022-09-05T05:35:17.269Z,16.79
2022-09-05T05:36:17.232Z,16.78
2022-09-05T05:37:17.162Z,16.83
2022-09-05T05:38:17.164Z,16.83
2022-09-05T05:39:17.076Z,16.90
2022-09-05T05:40:17.026Z,16.91
2022-09-05T05:41:16.952Z,17.06
2022-09-05T05:42:20.769Z,17.01
2022-09-05T05:43:16.870Z,17.22
2022-09-05T05:44:16.841Z,17.22
2022-09-05T05:45:16.735Z,17.31
2022-09-05T05:46:16.808Z,17.41
2022-09-05T05:47:16.626Z,17.59
2022-09-05T05:48:16.582Z,17.57
2022-09-05T05:49:16.570Z,17.67
2022-09-05T05:50:16.508Z,17.74
2022-09-05T05:51:16.496Z,17.86
2022-09-05T05:52:16.418Z,17.90
2022-09-05T05:53:28.956Z,18.01
2022-09-05T05:54:16.299Z,17.94
2022-09-05T05:55:50.835Z,17.94
2022-09-05T05:56:16.159Z,17.97
2022-09-05T05:57:16.108Z,18.04
2022-09-05T05:58:16.071Z,18.04
2022-09-05T05:59:16.007Z,18.07
2022-09-05T06:00:15.956Z,18.07
2022-09-05T06:01:30.332Z,18.07
2022-09-05T06:02:15.988Z,18.11
2022-09-05T06:03:26.834Z,18.03
2022-09-05T06:04:15.756Z,18.11
2022-09-05T06:05:15.706Z,18.10
2022-09-05T06:06:15.658Z,18.08
2022-09-05T06:07:15.604Z,18.19
2022-09-05T06:09:40.788Z,18.07
2022-09-05T06:13:30.531Z,18.11
2022-09-05T06:14:51.107Z,18.07
2022-09-05T06:14:57.753Z,18.18
2022-09-05T06:15:00.802Z,18.08
2022-09-05T06:15:02.368Z,18.20
2022-09-05T06:15:05.252Z,18.23
2022-09-05T06:15:21.298Z,18.31
2022-09-05T06:16:15.221Z,18.35
2022-09-05T06:17:15.103Z,18.40
2022-09-05T06:18:15.071Z,18.50
2022-09-05T06:19:15.007Z,18.50
2022-09-05T06:22:04.357Z,18.52
2022-09-05T06:22:09.393Z,18.63
2022-09-05T06:22:17.992Z,18.59
2022-09-05T06:23:28.803Z,18.75
2022-09-05T06:24:14.756Z,18.73
2022-09-05T06:25:16.962Z,18.77
2022-09-05T06:26:14.657Z,18.84
2022-09-05T06:27:14.605Z,18.95
2022-09-05T06:28:18.467Z,18.99
2022-09-05T06:29:14.520Z,19.08
2022-09-05T06:30:14.455Z,19.08
2022-09-05T06:31:30.195Z,19.15
2022-09-05T06:32:14.383Z,19.27
2022-09-05T06:33:14.308Z,19.33
2022-09-05T06:34:27.923Z,19.49
2022-09-05T06:35:14.223Z,19.55
2022-09-05T06:36:14.163Z,19.52
2022-09-05T06:37:14.109Z,19.64
2022-09-05T06:38:14.075Z,19.59
2022-09-05T06:39:14.011Z,19.58
2022-09-05T06:40:13.961Z,19.71
2022-09-05T06:41:13.912Z,19.77
2022-09-05T06:42:26.782Z,19.84
2022-09-05T06:43:13.827Z,19.92
2022-09-05T06:44:13.763Z,19.88
2022-09-05T06:45:28.365Z,19.82
2022-09-05T06:46:15.624Z,19.92
2022-09-05T06:47:30.209Z,19.95
2022-09-05T06:48:14.540Z,19.95
2022-09-05T06:49:28.986Z,19.88
2022-09-05T06:50:27.112Z,19.92
2022-09-05T06:51:13.421Z,19.94
2022-09-05T06:52:29.483Z,19.95
2022-09-05T06:53:19.911Z,19.95
2022-09-05T06:54:13.272Z,19.91
2022-09-05T06:55:13.238Z,19.89
2022-09-05T06:56:15.799Z,19.91
2022-09-05T06:57:13.127Z,20.07
2022-09-05T06:58:13.080Z,20.00
2022-09-05T06:59:13.029Z,20.02
2022-09-05T07:00:17.644Z,20.07
2022-09-05T07:01:13.043Z,20.13
2022-09-05T07:02:12.925Z,20.06
2022-09-05T07:03:13.573Z,20.18
2022-09-05T07:04:33.292Z,20.32
2022-09-05T07:05:37.217Z,20.43
2022-09-05T07:06:19.288Z,20.56
2022-09-05T07:07:12.645Z,20.59
2022-09-05T07:08:33.518Z,20.69
2022-09-05T07:09:12.542Z,20.77
2022-09-05T07:10:35.073Z,20.82
2022-09-05T07:11:16.972Z,20.82
2022-09-05T07:12:12.412Z,20.99
2022-09-05T07:13:12.348Z,21.09
2022-09-05T07:14:12.300Z,21.18
2022-09-05T07:15:12.254Z,21.27
2022-09-05T07:16:12.249Z,21.37
2022-09-05T07:17:12.156Z,21.39
2022-09-05T07:18:12.120Z,21.40
2022-09-05T07:22:47.579Z,21.51
2022-09-05T07:24:06.129Z,21.52
2022-09-05T07:24:47.584Z,21.52
2022-09-05T07:25:31.648Z,21.64
2022-09-05T07:26:49.710Z,21.75
2022-09-05T07:27:29.167Z,21.77
2022-09-05T07:28:30.544Z,21.77
2022-09-05T07:29:29.072Z,21.79
2022-09-05T07:30:29.024Z,21.80
2022-09-05T07:31:37.486Z,21.82
2022-09-05T07:32:28.935Z,21.85
2022-09-05T07:33:28.904Z,21.95
2022-09-05T07:34:28.832Z,21.98
2022-09-05T07:35:28.783Z,22.07
2022-09-05T07:36:28.736Z,22.25
2022-09-05T07:37:28.689Z,22.41
2022-09-05T07:38:48.289Z,22.66
2022-09-05T07:39:29.487Z,22.73
2022-09-05T07:40:28.627Z,22.83
2022-09-05T07:41:28.496Z,22.94
2022-09-05T07:42:28.461Z,23.00
2022-09-05T07:43:28.522Z,23.15
2022-09-05T07:44:28.375Z,23.17
2022-09-05T07:45:28.341Z,23.31
2022-09-05T07:46:28.259Z,23.44
2022-09-05T07:47:28.243Z,23.43
2022-09-05T07:48:34.955Z,23.51
2022-09-05T07:49:28.141Z,23.51
2022-09-05T07:52:24.926Z,23.54
2022-09-05T07:56:53.051Z,23.54
2022-09-05T07:56:53.251Z,23.59
2022-09-05T07:57:01.958Z,23.76
2022-09-05T07:57:02.369Z,23.62
2022-09-05T07:57:03.720Z,23.65
2022-09-05T07:57:09.635Z,23.91
2022-09-05T07:57:32.202Z,24.17
2022-09-05T07:58:27.695Z,24.29
2022-09-05T07:59:27.670Z,24.26
2022-09-05T08:00:29.548Z,24.36
2022-09-05T08:01:27.583Z,24.28
2022-09-05T08:02:27.510Z,24.26
2022-09-05T08:03:27.462Z,24.28
2022-09-05T08:04:27.423Z,24.26
2022-09-05T08:05:35.066Z,24.30
2022-09-05T08:07:26.983Z,24.35
2022-09-05T08:07:48.903Z,24.38
2022-09-05T08:08:27.231Z,24.54
2022-09-05T08:10:09.245Z,24.91
2022-09-05T08:10:31.081Z,25.23
2022-09-05T08:11:27.095Z,25.53
2022-09-05T08:12:27.908Z,25.84
2022-09-05T08:13:27.373Z,25.95
2022-09-05T08:14:43.433Z,26.18
2022-09-05T08:15:26.925Z,26.36
2022-09-05T08:16:26.891Z,26.45
2022-09-05T08:17:30.072Z,26.59
2022-09-05T08:18:27.553Z,26.92
2022-09-05T08:19:26.739Z,27.33
2022-09-05T08:20:26.707Z,27.83
2022-09-05T08:21:28.081Z,28.14
2022-09-05T08:22:26.602Z,28.27
2022-09-05T08:23:26.563Z,28.27
2022-09-05T08:24:26.516Z,28.22
2022-09-05T08:25:27.553Z,28.17
2022-09-05T08:26:26.430Z,28.57
2022-09-05T08:27:26.413Z,28.89
2022-09-05T08:28:38.901Z,29.32
2022-09-05T08:29:26.302Z,29.72
2022-09-05T08:30:28.118Z,30.02
2022-09-05T08:31:26.281Z,29.95
2022-09-05T08:32:26.207Z,29.66
2022-09-05T08:33:26.136Z,29.59
2022-09-05T08:34:31.500Z,29.63
2022-09-05T08:35:26.055Z,29.36
2022-09-05T08:36:26.012Z,29.61
2022-09-05T08:37:25.990Z,30.10
2022-09-05T08:38:26.137Z,29.93
2022-09-05T08:39:25.914Z,29.51
2022-09-05T08:40:25.911Z,29.57
2022-09-05T08:41:44.768Z,29.56
2022-09-05T08:42:25.766Z,29.90
2022-09-05T08:46:29.184Z,30.10
2022-09-05T08:46:39.749Z,30.02
2022-09-05T08:46:44.682Z,30.10
2022-09-05T08:46:45.796Z,30.16
2022-09-05T08:47:25.657Z,30.65
2022-09-05T08:48:25.517Z,30.90
2022-09-05T08:49:36.773Z,30.69
2022-09-05T08:50:26.771Z,30.68
2022-09-05T08:51:25.420Z,30.77
2022-09-05T08:52:25.357Z,30.66
2022-09-05T08:53:35.363Z,30.92
2022-09-05T08:54:25.271Z,31.25
2022-09-05T08:55:25.238Z,31.02
2022-09-05T08:56:25.210Z,31.31
2022-09-05T08:57:25.176Z,31.20
2022-09-05T08:58:25.173Z,30.83
2022-09-05T08:59:31.725Z,30.69
2022-09-05T09:00:25.026Z,30.75
2022-09-05T09:01:25.044Z,30.83
2022-09-05T09:02:47.450Z,30.62
2022-09-05T09:03:25.617Z,30.68
2022-09-05T09:04:37.143Z,30.50
2022-09-05T09:05:24.817Z,29.75
2022-09-05T09:06:26.833Z,29.39
2022-09-05T09:07:47.447Z,28.93
2022-09-05T09:08:24.720Z,28.75
2022-09-05T09:09:24.653Z,28.78
2022-09-05T09:10:25.972Z,29.07
2022-09-05T09:11:24.570Z,29.24
2022-09-05T09:12:24.528Z,29.75
2022-09-05T09:13:24.605Z,29.57
2022-09-05T09:14:30.308Z,29.23
2022-09-05T09:15:24.405Z,29.47
2022-09-05T09:16:24.432Z,29.53
2022-09-05T09:17:24.669Z,29.86
2022-09-05T09:18:24.279Z,30.12
2022-09-05T09:19:28.944Z,30.19
2022-09-05T09:20:24.279Z,30.27
2022-09-05T09:21:24.153Z,30.39
2022-09-05T09:22:24.127Z,30.19
2022-09-05T09:23:40.388Z,30.02
2022-09-05T09:24:24.039Z,29.97
2022-09-05T09:25:27.177Z,30.24
2022-09-05T09:26:24.678Z,30.63
2022-09-05T09:28:02.914Z,31.20
2022-09-05T09:28:46.950Z,31.58
2022-09-05T09:29:23.813Z,31.92
2022-09-05T09:30:23.877Z,31.93
2022-09-05T09:31:23.795Z,32.12
2022-09-05T09:32:23.697Z,32.16
2022-09-05T09:33:27.184Z,31.87
2022-09-05T09:34:23.605Z,31.54
2022-09-05T09:35:23.571Z,31.28
2022-09-05T09:36:23.562Z,31.17
2022-09-05T09:37:41.657Z,31.21
2022-09-05T09:38:23.472Z,31.43
2022-09-05T09:39:37.740Z,31.94
2022-09-05T09:40:23.386Z,32.46
2022-09-05T09:41:23.317Z,32.65
2022-09-05T09:42:33.221Z,32.65
2022-09-05T09:43:23.232Z,32.68
2022-09-05T09:44:23.192Z,32.52
2022-09-05T09:45:28.997Z,32.27
2022-09-05T09:46:23.157Z,31.59
2022-09-05T09:47:23.070Z,31.17
2022-09-05T09:48:23.082Z,31.02
2022-09-05T09:49:23.726Z,31.05
2022-09-05T09:50:23.684Z,30.55
2022-09-05T09:51:22.929Z,30.19
2022-09-05T09:52:22.872Z,29.97
2022-09-05T09:53:22.840Z,29.59
2022-09-05T09:54:22.787Z,28.97
2022-09-05T09:55:22.766Z,28.69
2022-09-05T09:56:22.699Z,28.51
2022-09-05T09:57:22.656Z,28.74
2022-09-05T09:58:23.811Z,29.16
2022-09-05T09:59:22.578Z,29.39
2022-09-05T10:00:22.533Z,29.90
2022-09-05T10:01:36.483Z,29.88
2022-09-05T10:04:12.513Z,29.22
2022-09-05T10:10:33.590Z,28.84
2022-09-05T10:10:35.549Z,28.72
2022-09-05T10:10:35.579Z,28.81
2022-09-05T10:10:44.180Z,29.16
2022-09-05T10:10:49.407Z,29.08
2022-09-05T10:10:49.589Z,29.79
2022-09-05T10:10:51.624Z,30.51
2022-09-05T10:10:51.889Z,30.30
2022-09-05T10:11:51.457Z,30.81
2022-09-05T10:12:22.142Z,31.37
2022-09-05T10:13:22.079Z,31.90
2022-09-05T10:14:24.261Z,32.34
2022-09-05T10:15:31.240Z,32.07
2022-09-05T10:16:21.939Z,31.64
2022-09-05T10:17:21.827Z,30.85
2022-09-05T10:18:22.416Z,30.43
2022-09-05T10:20:08.154Z,30.75
2022-09-05T10:20:24.044Z,30.77
2022-09-05T10:21:21.662Z,30.59
2022-09-05T10:22:37.779Z,30.70
2022-09-05T10:23:21.649Z,30.81
2022-09-05T10:24:21.565Z,30.88
2022-09-05T10:25:21.497Z,30.77
2022-09-05T10:26:21.456Z,30.37
2022-09-05T10:27:21.417Z,30.54
2022-09-05T10:28:21.378Z,30.83
2022-09-05T10:29:37.888Z,31.20
2022-09-05T10:30:25.234Z,31.42
2022-09-05T10:33:32.431Z,31.47
2022-09-05T10:35:07.670Z,31.62
2022-09-05T10:35:16.837Z,32.08
2022-09-05T10:35:17.161Z,31.89
2022-09-05T10:35:23.630Z,32.41
2022-09-05T10:36:21.100Z,32.58
2022-09-05T10:37:21.021Z,32.65
2022-09-05T10:38:21.010Z,32.82
2022-09-05T10:39:21.018Z,32.58
2022-09-05T10:40:20.888Z,32.19
2022-09-05T10:41:22.919Z,32.00
2022-09-05T10:42:20.808Z,32.07
2022-09-05T10:43:20.798Z,31.58
2022-09-05T10:44:20.726Z,31.03
2022-09-05T10:45:20.683Z,30.78
2022-09-05T10:46:46.991Z,30.70
2022-09-05T10:47:20.658Z,30.54
2022-09-05T10:48:20.566Z,30.51
2022-09-05T10:49:20.523Z,30.63
2022-09-05T10:50:20.482Z,30.94
2022-09-05T10:51:27.804Z,31.36
2022-09-05T10:52:20.401Z,31.55
2022-09-05T10:53:20.415Z,31.37
2022-09-05T10:54:20.320Z,31.40
2022-09-05T10:55:20.280Z,31.27
2022-09-05T10:56:20.264Z,31.46
2022-09-05T10:57:20.205Z,31.33
2022-09-05T10:58:30.381Z,31.64
2022-09-05T11:01:33.404Z,31.69
2022-09-05T11:02:20.159Z,32.00
2022-09-05T11:02:21.751Z,32.08
2022-09-05T11:02:34.071Z,32.22
2022-09-05T11:03:25.028Z,32.14
2022-09-05T11:04:19.997Z,32.14
2022-09-05T11:05:20.015Z,32.16
2022-09-05T11:06:24.849Z,32.19
2022-09-05T11:07:24.813Z,32.23
2022-09-05T11:08:19.757Z,32.12
2022-09-05T11:09:19.742Z,31.52
2022-09-05T11:10:19.675Z,31.20
2022-09-05T11:11:28.374Z,31.42
2022-09-05T11:12:19.596Z,31.44
2022-09-05T11:13:19.558Z,31.20
2022-09-05T11:14:26.838Z,31.27
2022-09-05T11:15:19.477Z,31.24
2022-09-05T11:16:19.490Z,30.88
2022-09-05T11:17:19.409Z,30.62
2022-09-05T11:18:19.357Z,30.47
2022-09-05T11:19:19.331Z,30.28
2022-09-05T11:20:23.814Z,30.34
2022-09-05T11:21:19.264Z,30.72
2022-09-05T11:22:23.664Z,30.84
2022-09-05T11:23:19.182Z,31.05
2022-09-05T11:24:19.116Z,30.94
2022-09-05T11:25:19.079Z,30.46
2022-09-05T11:26:19.038Z,29.79
2022-09-05T11:27:24.573Z,29.29
2022-09-05T11:28:18.981Z,29.01
2022-09-05T11:29:18.938Z,28.91
2022-09-05T11:30:28.608Z,28.88
2022-09-05T11:31:18.876Z,28.78
2022-09-05T11:36:11.798Z,28.74
2022-09-05T11:39:23.984Z,29.13
2022-09-05T11:39:47.564Z,29.90
2022-09-05T11:39:50.924Z,29.98
2022-09-05T11:39:54.370Z,29.36
2022-09-05T11:39:54.634Z,29.68
2022-09-05T11:40:07.146Z,29.39
2022-09-05T11:40:10.360Z,29.82
2022-09-05T11:40:26.581Z,29.22
2022-09-05T11:41:19.190Z,29.26
2022-09-05T11:42:18.386Z,29.17
2022-09-05T11:43:18.359Z,28.78
2022-09-05T11:44:25.802Z,28.67
2022-09-05T11:45:18.265Z,28.52
2022-09-05T11:46:18.340Z,28.47
2022-09-05T11:47:27.916Z,28.57
2022-09-05T11:48:18.142Z,28.59
2022-09-05T11:49:18.112Z,28.76
2022-09-05T11:50:18.058Z,28.78
2022-09-05T11:51:18.014Z,28.75
2022-09-05T11:52:17.974Z,28.89
2022-09-05T11:53:17.932Z,29.05
2022-09-05T11:54:17.895Z,28.88
2022-09-05T11:55:20.994Z,29.04
2022-09-05T11:56:17.806Z,29.08
2022-09-05T11:57:33.571Z,29.27
2022-09-05T11:58:44.725Z,29.73
2022-09-05T11:59:32.965Z,30.37
2022-09-05T12:00:31.328Z,30.97
2022-09-05T12:01:41.876Z,31.15
2022-09-05T12:02:23.898Z,31.03
2022-09-05T12:03:57.974Z,30.77
2022-09-05T12:04:17.517Z,30.80
2022-09-05T12:05:48.478Z,30.80
2022-09-05T12:06:17.449Z,30.62
2022-09-05T12:07:31.781Z,30.32
2022-09-05T12:08:17.329Z,30.02
2022-09-05T12:09:20.447Z,30.13
2022-09-05T12:10:43.544Z,30.02
2022-09-05T12:11:17.189Z,30.02
2022-09-05T12:12:29.984Z,30.28
2022-09-05T12:13:17.135Z,30.40
2022-09-05T12:14:21.608Z,30.84
2022-09-05T12:15:17.026Z,31.24
2022-09-05T12:16:17.026Z,31.29
2022-09-05T12:17:17.187Z,31.17
2022-09-05T12:18:19.617Z,30.75
2022-09-05T12:19:18.958Z,30.34
2022-09-05T12:20:22.174Z,30.05
2022-09-05T12:21:19.568Z,29.81
2022-09-05T12:22:23.555Z,29.56
2022-09-05T12:23:31.211Z,29.51
2022-09-05T12:25:25.218Z,29.35
2022-09-05T12:25:26.493Z,29.13
2022-09-05T12:26:16.580Z,29.31
2022-09-05T12:27:44.850Z,29.27
2022-09-05T12:29:27.146Z,29.27
2022-09-05T12:29:29.283Z,29.05
2022-09-05T12:30:16.410Z,29.14
2022-09-05T12:32:47.517Z,29.14
2022-09-05T12:33:45.444Z,29.35
2022-09-05T12:36:05.859Z,29.72
2022-09-05T12:36:08.151Z,30.10
2022-09-05T12:36:08.653Z,30.55
2022-09-05T12:40:40.446Z,30.75
2022-09-05T12:40:40.447Z,30.66
2022-09-05T12:40:57.647Z,30.83
2022-09-05T12:41:01.338Z,30.66
2022-09-05T12:41:37.579Z,30.54
2022-09-05T12:41:45.179Z,30.72
2022-09-05T12:42:23.847Z,30.65
2022-09-05T12:44:36.696Z,30.66
2022-09-05T12:44:38.565Z,30.48
2022-09-05T12:45:16.024Z,30.59
2022-09-05T12:46:19.793Z,30.51
2022-09-05T12:47:18.747Z,29.88
2022-09-05T12:48:15.671Z,30.02
2022-09-05T12:49:15.625Z,30.43
2022-09-05T12:50:15.850Z,30.75
2022-09-05T12:51:18.106Z,30.90
2022-09-05T12:52:15.503Z,31.15
2022-09-05T12:53:15.464Z,31.49
2022-09-05T12:54:32.633Z,31.58
2022-09-05T12:55:15.404Z,31.87